createdAt,value
2018-01-12T00:00:08.844Z,51.70
2018-01-12T00:02:36.364Z,52.62
2018-01-12T00:05:03.190Z,50.22
2018-01-12T00:07:30.749Z,48.60
2018-01-12T00:09:58.823Z,51.85
2018-01-12T00:12:26.384Z,53.20
2018-01-12T00:14:53.162Z,52.45
2018-01-12T00:17:19.997Z,53.87
2018-01-12T00:19:46.799Z,53.55
2018-01-12T00:22:13.935Z,50.97
2018-01-12T00:24:41.536Z,51.58
2018-01-12T00:27:08.385Z,51.00
2018-01-12T00:29:35.160Z,51.88
2018-01-12T00:32:02.504Z,50.80
2018-01-12T00:34:29.355Z,48.25
2018-01-12T00:36:57.039Z,48.53
2018-01-12T00:39:25.352Z,47.92
2018-01-12T00:41:53.010Z,47.08
2018-01-12T00:44:19.929Z,46.03
2018-01-12T00:46:47.589Z,48.90
2018-01-12T00:49:14.443Z,48.47
2018-01-12T00:51:41.356Z,47.92
2018-01-12T00:54:08.244Z,45.12
2018-01-12T00:56:35.150Z,44.25
2018-01-12T00:59:02.783Z,45.22
2018-01-12T01:01:29.693Z,45.92
2018-01-12T01:03:57.256Z,46.65
2018-01-12T01:06:24.133Z,47.05
2018-01-12T01:08:51.670Z,50.65
2018-01-12T01:11:18.518Z,41.80
2018-01-12T01:13:45.393Z,42.67
2018-01-12T01:16:12.164Z,41.33
2018-01-12T01:18:38.956Z,40.53
2018-01-12T01:21:06.458Z,43.85
2018-01-12T01:23:33.245Z,44.05
2018-01-12T01:26:00.088Z,43.28
2018-01-12T01:28:26.893Z,45.10
2018-01-12T01:30:53.714Z,43.15
2018-01-12T01:33:20.539Z,42.13
2018-01-12T01:35:48.062Z,45.05
2018-01-12T01:38:17.196Z,44.35
2018-01-12T01:40:44.044Z,44.40
2018-01-12T01:43:10.843Z,47.90
2018-01-12T01:45:38.361Z,49.70
2018-01-12T01:48:05.201Z,58.80
2018-01-12T01:50:32.025Z,63.65
2018-01-12T01:52:58.838Z,78.00
2018-01-12T01:55:25.610Z,82.50
2018-01-12T01:57:52.462Z,71.47
2018-01-12T02:00:19.244Z,79.70
2018-01-12T02:02:46.030Z,87.37
2018-01-12T02:05:12.839Z,85.82
2018-01-12T02:07:40.361Z,88.43
2018-01-12T02:10:07.186Z,89.45
2018-01-12T02:12:33.971Z,93.90
2018-01-12T02:15:00.751Z,88.22
2018-01-12T02:17:27.517Z,82.82
2018-01-12T02:19:55.084Z,91.90
2018-01-12T02:22:21.906Z,95.25
2018-01-12T02:24:48.680Z,91.10
2018-01-12T02:27:15.443Z,86.65
2018-01-12T02:29:42.200Z,89.45
2018-01-12T02:32:09.003Z,85.15
2018-01-12T02:34:35.820Z,87.10
2018-01-12T02:37:02.580Z,89.25
2018-01-12T02:39:29.376Z,84.65
2018-01-12T02:41:56.979Z,80.97
2018-01-12T02:44:23.731Z,88.15
2018-01-12T02:46:50.478Z,92.53
2018-01-12T02:49:18.007Z,87.82
2018-01-12T02:51:44.816Z,85.28
2018-01-12T02:54:12.356Z,88.35
2018-01-12T02:56:39.187Z,95.40
2018-01-12T02:59:06.945Z,91.47
2018-01-12T03:01:33.793Z,97.97
2018-01-12T03:04:01.403Z,92.07
2018-01-12T03:06:28.292Z,95.38
2018-01-12T03:08:55.164Z,98.55
2018-01-12T03:11:22.076Z,93.32
2018-01-12T03:13:48.892Z,92.15
2018-01-12T03:16:15.706Z,95.45
2018-01-12T03:18:42.497Z,89.10
2018-01-12T03:21:09.285Z,94.13
2018-01-12T03:23:36.053Z,96.82
2018-01-12T03:26:03.573Z,92.40
2018-01-12T03:28:30.333Z,95.90
2018-01-12T03:30:57.128Z,92.50
2018-01-12T03:33:23.951Z,91.93
2018-01-12T03:35:50.740Z,91.63
2018-01-12T03:38:17.529Z,86.35
2018-01-12T03:40:45.044Z,82.90
2018-01-12T03:43:12.600Z,85.12
2018-01-12T03:45:39.444Z,79.82
2018-01-12T03:48:06.214Z,83.78
2018-01-12T03:50:33.717Z,79.62
2018-01-12T03:53:00.490Z,81.53
2018-01-12T03:55:27.284Z,91.10
2018-01-12T03:57:54.085Z,76.85
2018-01-12T04:00:20.903Z,81.47
2018-01-12T04:02:47.754Z,80.68
2018-01-12T04:05:14.511Z,78.37
2018-01-12T04:07:41.294Z,81.37
2018-01-12T04:10:08.112Z,85.47
2018-01-12T04:12:34.882Z,81.15
2018-01-12T04:15:01.694Z,79.90
2018-01-12T04:17:28.469Z,80.18
2018-01-12T04:19:55.262Z,83.57
2018-01-12T04:22:22.065Z,77.72
2018-01-12T04:24:49.598Z,75.72
2018-01-12T04:27:16.416Z,83.28
2018-01-12T04:29:43.189Z,82.95
2018-01-12T04:32:10.005Z,85.57
2018-01-12T04:34:36.793Z,78.55
2018-01-12T04:37:03.628Z,82.25
2018-01-12T04:39:31.192Z,71.68
2018-01-12T04:41:58.028Z,74.05
2018-01-12T04:44:24.798Z,71.55
2018-01-12T04:46:51.585Z,71.32
2018-01-12T04:49:18.357Z,69.10
2018-01-12T04:51:45.160Z,73.95
2018-01-12T04:54:11.962Z,70.97
2018-01-12T04:56:38.772Z,70.35
2018-01-12T04:59:05.597Z,67.25
2018-01-12T05:01:33.130Z,69.97
2018-01-12T05:03:59.963Z,71.00
2018-01-12T05:06:26.735Z,70.70
2018-01-12T05:08:53.511Z,72.30
2018-01-12T05:11:20.295Z,69.62
2018-01-12T05:13:47.037Z,66.22
2018-01-12T05:16:13.795Z,63.63
2018-01-12T05:18:40.725Z,66.18
2018-01-12T05:21:07.551Z,66.62
2018-01-12T05:23:35.048Z,62.80
2018-01-12T05:26:01.803Z,61.53
2018-01-12T05:28:28.579Z,61.85
2018-01-12T05:30:55.396Z,66.15
2018-01-12T05:33:22.217Z,62.60
2018-01-12T05:35:49.004Z,65.43
2018-01-12T05:38:15.810Z,74.20
2018-01-12T05:40:42.636Z,75.12
2018-01-12T05:43:09.472Z,76.62
2018-01-12T05:45:36.313Z,67.25
2018-01-12T05:48:03.093Z,72.37
2018-01-12T05:50:29.898Z,76.35
2018-01-12T05:52:57.414Z,71.68
2018-01-12T05:55:24.233Z,68.47
2018-01-12T05:57:51.773Z,68.80
2018-01-12T06:00:19.549Z,72.07
2018-01-12T06:03:04.570Z,70.12
2018-01-12T06:05:49.497Z,67.47
2018-01-12T06:08:16.287Z,73.30
2018-01-12T06:10:43.097Z,69.05
2018-01-12T06:13:09.898Z,70.85
2018-01-12T06:15:36.721Z,73.55
2018-01-12T06:18:03.541Z,73.85
2018-01-12T06:20:31.118Z,71.97
2018-01-12T06:22:58.677Z,69.62
2018-01-12T06:25:25.490Z,67.97
2018-01-12T06:27:52.335Z,71.40
2018-01-12T06:30:19.187Z,71.30
2018-01-12T06:32:46.510Z,71.20
2018-01-12T06:35:14.145Z,68.72
2018-01-12T06:37:41.016Z,71.60
2018-01-12T06:40:07.813Z,69.12
2018-01-12T06:42:34.622Z,70.37
2018-01-12T06:45:01.460Z,68.62
2018-01-12T06:47:29.424Z,69.18
2018-01-12T06:49:56.321Z,69.97
2018-01-12T06:52:23.862Z,68.03
2018-01-12T06:54:50.666Z,71.35
2018-01-12T06:57:18.207Z,73.80
2018-01-12T06:59:45.633Z,72.28
2018-01-12T07:02:12.460Z,68.15
2018-01-12T07:04:39.271Z,73.28
2018-01-12T07:07:06.109Z,72.25
2018-01-12T07:09:32.952Z,69.55
2018-01-12T07:12:00.557Z,73.60
2018-01-12T07:14:27.387Z,74.35
2018-01-12T07:16:54.933Z,73.00
2018-01-12T07:19:21.750Z,73.85
2018-01-12T07:22:06.762Z,70.90
2018-01-12T07:24:33.547Z,69.20
2018-01-12T07:27:00.369Z,68.72
2018-01-12T07:29:27.154Z,70.68
2018-01-12T07:31:54.701Z,67.40
2018-01-12T07:34:21.486Z,67.95
2018-01-12T07:36:48.282Z,65.78
2018-01-12T07:39:15.842Z,67.95
2018-01-12T07:41:42.657Z,72.60
2018-01-12T07:44:09.460Z,77.93
2018-01-12T07:46:36.258Z,76.30
2018-01-12T07:49:03.241Z,212.77
2018-01-12T07:51:30.780Z,73.10
2018-01-12T07:53:58.317Z,68.10
2018-01-12T07:56:25.125Z,84.65
2018-01-12T07:58:52.636Z,96.72
2018-01-12T08:01:26.112Z,103.97
2018-01-12T08:03:53.673Z,98.45
2018-01-12T08:06:20.515Z,72.80
2018-01-12T08:08:47.391Z,97.50
2018-01-12T08:11:14.218Z,73.30
2018-01-12T08:13:41.052Z,81.85
2018-01-12T08:16:07.888Z,74.90
2018-01-12T08:18:34.696Z,90.50
2018-01-12T08:21:01.494Z,73.07
2018-01-12T08:23:28.346Z,68.10
2018-01-12T08:25:55.232Z,68.53
2018-01-12T08:28:22.750Z,71.35
2018-01-12T08:30:49.558Z,77.93
2018-01-12T08:33:16.372Z,77.47
2018-01-12T08:35:43.235Z,71.28
2018-01-12T08:38:10.735Z,64.65
2018-01-12T08:40:37.526Z,64.78
2018-01-12T08:43:04.339Z,62.78
2018-01-12T08:45:31.159Z,61.88
2018-01-12T08:47:58.685Z,69.22
2018-01-12T08:50:27.329Z,63.00
2018-01-12T08:52:55.104Z,68.37
2018-01-12T08:55:22.715Z,80.45
2018-01-12T08:57:49.570Z,67.85
2018-01-12T09:00:16.402Z,65.95
2018-01-12T09:02:43.999Z,66.22
2018-01-12T09:05:11.569Z,66.43
2018-01-12T09:07:39.180Z,60.80
2018-01-12T09:10:06.021Z,63.55
2018-01-12T09:12:33.598Z,58.13
2018-01-12T09:28:26.142Z,57.08
2018-01-12T09:30:53.089Z,62.22
2018-01-12T09:33:19.972Z,66.55
2018-01-12T09:35:46.852Z,63.28
2018-01-12T09:38:21.780Z,62.67
2018-01-12T09:40:48.664Z,58.83
2018-01-12T09:43:15.521Z,62.72
2018-01-12T09:45:42.447Z,63.67
2018-01-12T09:48:25.484Z,77.37
2018-01-12T09:50:52.312Z,68.00
2018-01-12T09:53:19.849Z,78.03
2018-01-12T09:55:46.654Z,94.13
2018-01-12T09:58:13.497Z,61.37
2018-01-12T10:00:42.013Z,68.30
2018-01-12T10:03:08.903Z,67.35
2018-01-12T10:05:36.573Z,85.68
2018-01-12T10:08:04.429Z,63.83
2018-01-12T10:10:32.026Z,65.37
2018-01-12T10:12:58.884Z,67.25
2018-01-12T10:15:25.712Z,61.15
2018-01-12T10:17:55.595Z,65.05
2018-01-12T10:20:35.404Z,61.05
2018-01-12T10:23:02.292Z,66.05
2018-01-12T10:25:29.134Z,62.62
2018-01-12T10:27:59.068Z,62.17
2018-01-12T10:44:01.918Z,62.67
2018-01-12T10:46:56.918Z,67.55
2018-01-12T10:49:26.587Z,64.72
2018-01-12T10:52:01.521Z,63.65
2018-01-12T10:54:28.343Z,69.65
2018-01-12T10:56:55.908Z,64.35
2018-01-12T10:59:22.666Z,67.85
2018-01-12T11:01:49.507Z,70.00
2018-01-12T11:04:16.329Z,66.30
2018-01-12T11:06:43.155Z,65.25
2018-01-12T11:09:10.692Z,66.22
2018-01-12T11:11:37.491Z,67.55
2018-01-12T11:14:04.523Z,67.05
2018-01-12T11:16:31.362Z,69.00
2018-01-12T11:18:58.915Z,70.57
2018-01-12T11:21:25.717Z,71.80
2018-01-12T11:23:52.564Z,70.95
2018-01-12T11:26:20.096Z,68.65
2018-01-12T11:28:47.687Z,69.12
2018-01-12T11:31:15.244Z,64.72
2018-01-12T11:33:42.104Z,65.93
2018-01-12T11:36:09.056Z,68.90
2018-01-12T11:38:35.890Z,191.50
2018-01-12T11:41:02.691Z,72.20
2018-01-12T11:43:29.542Z,68.45
2018-01-12T11:45:56.355Z,72.43
2018-01-12T11:48:23.187Z,73.03
2018-01-12T11:50:50.758Z,71.30
2018-01-12T11:53:18.330Z,74.22
2018-01-12T11:55:45.228Z,70.30
2018-01-12T11:58:12.084Z,73.78
2018-01-12T12:00:38.976Z,70.40
2018-01-12T12:03:05.851Z,74.18
2018-01-12T12:05:32.785Z,70.57
2018-01-12T12:07:59.688Z,71.47
2018-01-12T12:10:26.588Z,69.03
2018-01-12T12:12:54.205Z,70.55
2018-01-12T12:15:21.102Z,75.28
2018-01-12T12:17:47.940Z,74.28
2018-01-12T12:20:14.867Z,74.30
2018-01-12T12:22:41.749Z,70.45
2018-01-12T12:25:08.682Z,73.68
2018-01-12T12:27:35.585Z,69.50
2018-01-12T12:30:02.560Z,71.40
2018-01-12T12:32:29.439Z,70.55
2018-01-12T12:34:56.289Z,70.10
2018-01-12T12:37:23.121Z,70.28
2018-01-12T12:39:49.988Z,73.93
2018-01-12T12:42:16.937Z,70.28
2018-01-12T12:44:43.812Z,68.78
2018-01-12T12:47:10.712Z,71.20
2018-01-12T12:49:38.303Z,71.32
2018-01-12T12:52:05.973Z,73.28
2018-01-12T12:54:32.851Z,71.82
2018-01-12T12:57:00.435Z,67.43
2018-01-12T12:59:27.247Z,71.93
2018-01-12T13:01:54.468Z,65.90
2018-01-12T13:04:21.306Z,66.05
2018-01-12T13:06:48.889Z,74.90
2018-01-12T13:09:15.755Z,72.75
2018-01-12T13:11:43.363Z,68.03
2018-01-12T13:14:10.227Z,67.12
2018-01-12T13:16:37.095Z,85.00
2018-01-12T13:19:03.978Z,68.35
2018-01-12T13:21:30.838Z,67.60
2018-01-12T13:23:57.728Z,68.45
2018-01-12T13:26:24.618Z,69.57
2018-01-12T13:28:51.487Z,66.97
2018-01-12T13:31:18.393Z,66.93
2018-01-12T13:33:45.325Z,70.18
2018-01-12T13:36:12.967Z,66.53
2018-01-12T13:38:40.601Z,65.60
2018-01-12T13:41:07.462Z,78.37
2018-01-12T13:43:34.286Z,69.68
2018-01-12T13:46:10.181Z,72.70
2018-01-12T13:48:39.638Z,70.18
2018-01-12T13:51:07.303Z,70.40
2018-01-12T13:53:34.145Z,67.12
2018-01-12T13:56:00.999Z,75.82
2018-01-12T13:58:28.754Z,129.60
2018-01-12T14:00:55.655Z,72.37
2018-01-12T14:03:22.529Z,70.53
2018-01-12T14:05:49.386Z,66.55
2018-01-12T14:08:16.234Z,69.95
2018-01-12T14:10:43.075Z,68.78
2018-01-12T14:13:09.950Z,62.53
2018-01-12T14:15:36.774Z,59.72
2018-01-12T14:18:03.649Z,63.83
2018-01-12T14:20:31.204Z,64.55
2018-01-12T14:22:58.100Z,64.78
2018-01-12T14:25:24.977Z,67.72
2018-01-12T14:27:51.789Z,69.95
2018-01-12T14:30:18.724Z,64.90
2018-01-12T14:32:45.575Z,64.28
2018-01-12T14:35:12.403Z,61.60
2018-01-12T14:37:39.258Z,61.33
2018-01-12T14:40:06.902Z,60.72
2018-01-12T14:42:33.771Z,63.63
2018-01-12T14:45:00.669Z,60.40
2018-01-12T14:47:27.564Z,58.70
2018-01-12T14:49:54.416Z,58.08
2018-01-12T14:52:21.362Z,62.17
2018-01-12T14:54:48.244Z,59.22
2018-01-12T14:57:16.357Z,57.70
2018-01-12T14:59:44.001Z,56.33
2018-01-12T15:02:10.851Z,57.92
2018-01-12T15:04:37.955Z,56.03
2018-01-12T15:07:05.129Z,52.25
2018-01-12T15:09:32.983Z,55.45
2018-01-12T15:11:59.931Z,52.80
2018-01-12T15:14:26.774Z,50.12
2018-01-12T15:16:54.350Z,52.22
2018-01-12T15:19:21.944Z,51.72
2018-01-12T15:21:48.817Z,53.70
2018-01-12T15:24:15.733Z,56.57
2018-01-12T15:26:43.418Z,52.70
2018-01-12T15:29:11.011Z,52.67
2018-01-12T15:31:38.589Z,57.00
2018-01-12T15:34:06.697Z,52.20
2018-01-12T15:36:33.626Z,52.38
2018-01-12T15:39:00.485Z,49.70
2018-01-12T15:41:27.305Z,51.65
2018-01-12T15:43:54.875Z,54.55
2018-01-12T15:46:21.678Z,57.13
2018-01-12T15:48:48.881Z,55.23
2018-01-12T15:51:15.703Z,58.00
2018-01-12T15:53:42.497Z,66.53
2018-01-12T15:56:10.029Z,54.10
2018-01-12T15:58:36.872Z,50.67
2018-01-12T16:01:03.739Z,54.33
2018-01-12T16:03:30.597Z,52.28
2018-01-12T16:05:57.378Z,52.92
2018-01-12T16:08:24.157Z,53.40
2018-01-12T16:10:50.962Z,74.93
2018-01-12T16:13:17.721Z,56.25
2018-01-12T16:15:44.494Z,54.78
2018-01-12T16:18:11.340Z,48.47
2018-01-12T16:20:38.125Z,52.15
2018-01-12T16:23:04.873Z,55.83
2018-01-12T16:25:31.653Z,59.75
2018-01-12T16:27:58.449Z,61.67
2018-01-12T16:30:25.215Z,60.05
2018-01-12T16:32:52.750Z,60.28
2018-01-12T16:35:19.539Z,60.12
2018-01-12T16:37:46.329Z,58.60
2018-01-12T16:40:13.138Z,60.25
2018-01-12T16:42:39.953Z,55.83
2018-01-12T16:45:06.767Z,60.63
2018-01-12T16:47:34.500Z,58.55
2018-01-12T16:50:01.380Z,57.50
2018-01-12T16:52:28.230Z,59.78
2018-01-12T16:54:55.029Z,57.38
2018-01-12T16:57:21.814Z,54.90
2018-01-12T16:59:49.354Z,57.30
2018-01-12T17:02:16.129Z,61.15
2018-01-12T17:04:42.937Z,57.55
2018-01-12T17:07:10.448Z,56.17
2018-01-12T17:09:38.067Z,56.75
2018-01-12T17:12:05.633Z,58.30
2018-01-12T17:14:32.526Z,62.05
2018-01-12T17:16:59.604Z,59.60
2018-01-12T17:19:27.196Z,66.20
2018-01-12T17:21:54.041Z,62.88
2018-01-12T17:24:20.997Z,64.40
2018-01-12T17:26:47.770Z,88.70
2018-01-12T17:29:14.630Z,79.30
2018-01-12T17:31:41.402Z,76.90
2018-01-12T17:34:08.232Z,69.00
2018-01-12T17:36:35.059Z,64.60
2018-01-12T17:39:01.845Z,59.83
2018-01-12T17:41:28.640Z,60.35
2018-01-12T17:43:55.424Z,64.28
2018-01-12T17:46:22.358Z,63.97
2018-01-12T17:48:49.189Z,72.57
2018-01-12T17:51:16.747Z,82.70
2018-01-12T17:53:43.655Z,79.28
2018-01-12T17:56:10.448Z,73.30
2018-01-12T17:58:37.289Z,80.18
2018-01-12T18:01:04.110Z,80.60
2018-01-12T18:03:31.688Z,78.32
2018-01-12T18:05:59.229Z,81.65
2018-01-12T18:08:33.402Z,74.12
2018-01-12T18:11:00.324Z,97.35
2018-01-12T18:13:27.161Z,88.00
2018-01-12T18:15:54.773Z,90.80
2018-01-12T18:18:22.351Z,85.85
2018-01-12T18:20:49.177Z,81.30
2018-01-12T18:23:16.254Z,85.25
2018-01-12T18:25:43.139Z,81.22
2018-01-12T18:28:09.973Z,80.20
2018-01-12T18:30:36.934Z,79.75
2018-01-12T18:33:03.788Z,77.85
2018-01-12T18:35:30.665Z,78.40
2018-01-12T18:37:57.507Z,79.03
2018-01-12T18:40:24.441Z,76.68
2018-01-12T18:42:51.376Z,81.03
2018-01-12T18:45:18.275Z,78.82
2018-01-12T18:47:49.828Z,83.57
2018-01-12T18:50:17.430Z,85.95
2018-01-12T18:52:44.266Z,84.28
2018-01-12T18:55:11.883Z,85.28
2018-01-12T18:57:39.264Z,87.80
2018-01-12T19:00:06.106Z,94.55
2018-01-12T19:02:33.035Z,93.03
2018-01-12T19:05:00.644Z,93.07
2018-01-12T19:07:27.581Z,88.00
2018-01-12T19:09:54.444Z,91.57
2018-01-12T19:12:22.071Z,93.00
2018-01-12T19:14:50.615Z,88.57
2018-01-12T19:17:18.915Z,87.62
2018-01-12T19:19:45.991Z,96.45
2018-01-12T19:22:14.250Z,92.15
2018-01-12T19:24:42.358Z,89.50
2018-01-12T19:27:09.823Z,91.28
2018-01-12T19:29:37.362Z,93.85
2018-01-12T19:32:06.062Z,86.90
2018-01-12T19:34:35.435Z,89.37
2018-01-12T19:37:04.154Z,88.47
2018-01-12T19:39:32.818Z,91.70
2018-01-12T19:42:00.974Z,86.80
2018-01-12T19:44:28.932Z,89.62
2018-01-12T19:46:57.502Z,98.65
2018-01-12T19:49:26.318Z,92.62
2018-01-12T19:51:54.797Z,95.90
2018-01-12T19:54:26.055Z,92.82
2018-01-12T19:56:55.656Z,91.70
2018-01-12T19:59:24.540Z,89.37
2018-01-12T20:01:53.387Z,93.93
2018-01-12T20:04:21.857Z,88.82
2018-01-12T20:06:52.557Z,93.25
2018-01-12T20:09:21.292Z,91.72
2018-01-12T20:11:49.954Z,91.93
2018-01-12T20:14:18.883Z,89.95
2018-01-12T20:16:47.842Z,89.22
2018-01-12T20:19:16.618Z,92.60
2018-01-12T20:21:45.878Z,89.97
2018-01-12T20:24:14.802Z,88.72
2018-01-12T20:26:43.789Z,92.12
2018-01-12T20:40:23.442Z,102.32
2018-01-12T20:42:53.107Z,95.95
2018-01-12T20:45:21.951Z,89.35
2018-01-12T20:47:51.576Z,84.90
2018-01-12T20:50:21.117Z,90.05
2018-01-12T20:52:50.067Z,93.28
2018-01-12T20:55:19.010Z,88.87
2018-01-12T20:57:53.240Z,90.38
2018-01-12T21:00:23.105Z,89.13
2018-01-12T21:02:51.659Z,91.57
2018-01-12T21:05:20.541Z,92.80
2018-01-12T21:07:49.325Z,97.88
2018-01-12T21:10:18.005Z,88.60
2018-01-12T21:12:47.799Z,88.30
2018-01-12T21:15:16.599Z,85.12
2018-01-12T21:17:46.112Z,87.68
2018-01-12T21:20:15.761Z,85.75
2018-01-12T21:22:44.548Z,87.53
2018-01-12T21:25:14.341Z,82.82
2018-01-12T21:27:43.369Z,79.30
2018-01-12T21:30:12.178Z,83.57
2018-01-12T21:32:40.719Z,79.30
2018-01-12T21:35:11.503Z,84.57
2018-01-12T21:37:39.490Z,82.93
2018-01-12T21:40:08.404Z,86.05
2018-01-12T21:42:37.114Z,82.60
2018-01-12T21:45:05.969Z,78.30
2018-01-12T21:47:34.948Z,77.05
2018-01-12T21:50:03.942Z,84.00
2018-01-12T21:52:33.572Z,79.07
2018-01-12T21:55:02.356Z,78.32
2018-01-12T21:57:31.808Z,80.15
2018-01-12T22:00:00.523Z,81.82
2018-01-12T22:02:28.562Z,79.95
2018-01-12T22:04:56.082Z,77.85
2018-01-12T22:07:25.690Z,81.85
2018-01-12T22:09:54.862Z,81.22
2018-01-12T22:12:22.732Z,74.87
2018-01-12T22:14:49.916Z,73.65
2018-01-12T22:17:17.525Z,78.05
2018-01-12T22:19:44.500Z,79.90
2018-01-12T22:22:11.606Z,76.03
2018-01-12T22:24:38.650Z,74.12
2018-01-12T22:27:05.474Z,72.78
2018-01-12T22:29:32.327Z,75.53
2018-01-12T22:31:59.169Z,73.72
2018-01-12T22:34:27.075Z,72.40
2018-01-12T22:36:54.522Z,69.87
2018-01-12T22:39:22.969Z,70.72
2018-01-12T22:41:50.792Z,69.25
2018-01-12T22:44:18.499Z,73.40
2018-01-12T22:46:46.268Z,74.95
2018-01-12T22:49:14.063Z,73.43
2018-01-12T22:51:41.990Z,71.87
2018-01-12T22:54:09.256Z,71.82
2018-01-12T22:56:37.023Z,70.45
2018-01-12T22:59:04.838Z,71.07
2018-01-12T23:01:33.423Z,74.05
2018-01-12T23:04:01.156Z,72.10
2018-01-12T23:06:28.949Z,73.75
2018-01-12T23:08:56.735Z,75.93
2018-01-12T23:11:24.503Z,70.90
2018-01-12T23:13:52.057Z,76.60
2018-01-12T23:16:18.871Z,71.20
2018-01-12T23:18:45.692Z,73.53
2018-01-12T23:21:12.520Z,73.85
2018-01-12T23:23:39.298Z,76.00
2018-01-12T23:26:06.111Z,74.45
2018-01-12T23:28:32.938Z,71.20
2018-01-12T23:30:59.817Z,75.55
2018-01-12T23:33:27.364Z,72.53
2018-01-12T23:35:54.189Z,71.30
2018-01-12T23:38:20.966Z,70.25
2018-01-12T23:40:47.759Z,70.00
2018-01-12T23:43:15.378Z,67.62
2018-01-12T23:45:42.232Z,67.62
2018-01-12T23:48:09.089Z,63.55
2018-01-12T23:50:35.912Z,62.72
2018-01-12T23:53:02.842Z,60.30
2018-01-12T23:55:29.659Z,70.85
2018-01-12T23:57:56.570Z,63.60
